Time;durP1;ratioP1;P1;durP2;ratioP2;P2;SDS_P1;SDS_P2;PMS_P1;PMS_P2;Temp;Humidity;BMP_temperature;BMP_pressure;BME280_temperature;BME280_humidity;BME280_pressure;Samples;Min_cycle;Max_cycle;Signal;HPM_P1;HPM_P2
2022/07/04 00:00:24;;;;;;;2.67;2.00;;;21.10;83.50;;;;;;4945419;29;20028;-72
2022/07/04 00:02:50;;;;;;;4.13;2.60;;;21.10;83.90;;;;;;4944167;29;20074;-72
2022/07/04 00:05:17;;;;;;;2.58;2.30;;;21.00;84.70;;;;;;4928397;29;20024;-72
2022/07/04 00:07:45;;;;;;;2.40;1.80;;;21.10;85.40;;;;;;4944273;29;20274;-72
2022/07/04 00:10:18;;;;;;;2.67;1.95;;;21.00;83.40;;;;;;4928486;29;20039;-72
2022/07/04 00:12:44;;;;;;;2.92;2.03;;;21.00;83.50;;;;;;4928024;29;20215;-72
2022/07/04 00:15:10;;;;;;;2.65;1.73;;;21.00;84.40;;;;;;4945212;29;20034;-72
2022/07/04 00:17:36;;;;;;;2.83;2.50;;;21.00;84.60;;;;;;4943144;29;20028;-72
2022/07/04 00:20:03;;;;;;;2.70;2.45;;;21.00;84.30;;;;;;4945154;29;20232;-72
2022/07/04 00:22:29;;;;;;;3.80;2.05;;;21.00;84.20;;;;;;4943272;29;20039;-72
2022/07/04 00:24:55;;;;;;;2.60;2.40;;;21.00;85.20;;;;;;4943757;29;20024;-72
2022/07/04 00:27:20;;;;;;;4.97;2.70;;;21.00;85.50;;;;;;4927524;29;20023;-72
2022/07/04 00:29:46;;;;;;;2.70;2.47;;;21.00;85.00;;;;;;4945032;29;20027;-72
2022/07/04 00:32:12;;;;;;;3.27;2.20;;;20.90;86.00;;;;;;4944106;29;20023;-72
2022/07/04 00:34:37;;;;;;;3.93;2.30;;;20.90;84.70;;;;;;4944570;29;20023;-72
2022/07/04 00:37:03;;;;;;;4.40;2.43;;;20.80;84.80;;;;;;4972047;23;20109;-77
2022/07/04 00:39:29;;;;;;;2.92;2.13;;;20.80;84.50;;;;;;4948824;28;20035;-78
2022/07/04 00:41:55;;;;;;;4.30;2.97;;;20.80;85.20;;;;;;4956233;29;20022;-79
2022/07/04 00:44:21;;;;;;;2.40;2.10;;;20.80;85.80;;;;;;4978992;28;20275;-78
2022/07/04 00:46:47;;;;;;;5.10;2.40;;;20.70;85.60;;;;;;4976313;28;20037;-78
2022/07/04 00:49:14;;;;;;;2.10;1.90;;;20.70;86.70;;;;;;4977260;28;20030;-76
2022/07/04 00:51:41;;;;;;;2.90;2.28;;;20.70;86.30;;;;;;4958318;29;20107;-76
2022/07/04 00:54:09;;;;;;;5.22;1.95;;;20.70;87.10;;;;;;4962192;29;20043;-76
2022/07/04 00:56:39;;;;;;;2.53;2.13;;;20.80;85.60;;;;;;4931405;29;20027;-77
2022/07/04 00:59:05;;;;;;;2.55;2.25;;;20.80;87.40;;;;;;4931117;29;20051;-76
2022/07/04 01:01:31;;;;;;;4.45;2.17;;;20.70;86.30;;;;;;4946920;29;20028;-76
2022/07/04 01:03:57;;;;;;;3.67;2.20;;;20.70;87.20;;;;;;4930775;29;20074;-76
2022/07/04 01:06:23;;;;;;;3.77;2.37;;;20.70;86.70;;;;;;4930972;29;20031;-77
2022/07/04 01:08:48;;;;;;;4.15;2.10;;;20.70;86.70;;;;;;4930981;29;20266;-77
2022/07/04 01:11:15;;;;;;;2.20;2.00;;;20.70;86.50;;;;;;4930922;29;20035;-77
2022/07/04 01:13:41;;;;;;;3.28;2.25;;;20.70;85.80;;;;;;4958827;29;20019;-76
2022/07/04 01:16:07;;;;;;;4.78;2.40;;;20.70;85.60;;;;;;4965802;29;20098;-77
2022/07/04 01:18:33;;;;;;;2.63;2.20;;;20.60;86.60;;;;;;4949774;29;20034;-77
2022/07/04 01:20:59;;;;;;;2.73;2.40;;;20.60;87.00;;;;;;4949891;29;20090;-77
2022/07/04 01:23:24;;;;;;;3.70;1.57;;;20.60;87.10;;;;;;4965285;29;20031;-77
2022/07/04 01:25:50;;;;;;;4.17;2.20;;;20.60;87.00;;;;;;4974842;28;20440;-76
2022/07/04 01:28:18;;;;;;;6.80;2.58;;;20.60;87.30;;;;;;4981069;28;20031;-76
2022/07/04 01:30:44;;;;;;;2.97;2.28;;;20.50;87.60;;;;;;4984968;28;20073;-77
2022/07/04 01:33:10;;;;;;;5.60;2.00;;;20.50;87.00;;;;;;4970583;28;20024;-77
2022/07/04 01:35:35;;;;;;;5.00;2.13;;;20.50;87.40;;;;;;4947075;29;20087;-76
2022/07/04 01:38:01;;;;;;;3.22;2.15;;;20.40;87.40;;;;;;4947240;29;20043;-75
2022/07/04 01:40:27;;;;;;;2.90;2.43;;;20.40;87.40;;;;;;4961413;29;20313;-76
2022/07/04 01:42:53;;;;;;;8.17;2.50;;;20.40;87.30;;;;;;4961795;29;20322;-77
2022/07/04 01:45:19;;;;;;;5.23;2.80;;;20.40;88.60;;;;;;4953615;29;20015;-77
2022/07/04 01:47:45;;;;;;;2.47;2.27;;;20.40;88.80;;;;;;4965197;29;20051;-77
2022/07/04 01:50:14;;;;;;;5.47;2.13;;;20.40;89.40;;;;;;4949362;29;20023;-77
2022/07/04 01:52:40;;;;;;;2.67;2.42;;;20.30;88.50;;;;;;4949540;28;20085;-77
2022/07/04 01:55:08;;;;;;;5.82;2.35;;;20.30;88.50;;;;;;4949166;29;20031;-77
2022/07/04 01:57:34;;;;;;;3.40;2.10;;;20.30;89.80;;;;;;4964128;29;20065;-77
2022/07/04 02:02:43;;;;;;;3.92;2.50;;;20.20;88.10;;;;;;4966830;29;20139;-77
2022/07/04 02:05:09;;;;;;;3.27;2.10;;;20.20;88.90;;;;;;4966064;29;20266;-77
2022/07/04 02:07:35;;;;;;;2.80;2.10;;;20.20;88.70;;;;;;4948991;29;20214;-77
2022/07/04 02:10:01;;;;;;;3.30;2.53;;;20.20;88.90;;;;;;4948152;28;20023;-77
2022/07/04 02:15:11;;;;;;;3.22;2.47;;;20.10;89.20;;;;;;4964996;29;20062;-77
2022/07/04 02:17:37;;;;;;;1.83;1.73;;;20.10;90.10;;;;;;4965664;29;20027;-77
2022/07/04 02:20:04;;;;;;;3.93;2.07;;;20.10;90.30;;;;;;4965276;29;20333;-77
2022/07/04 02:22:30;;;;;;;4.82;2.10;;;20.10;89.60;;;;;;4933175;29;20019;-77
2022/07/04 02:24:56;;;;;;;3.38;2.20;;;20.10;90.30;;;;;;4964022;29;20213;-77
2022/07/04 02:27:22;;;;;;;4.67;1.97;;;20.10;90.90;;;;;;4964423;28;20094;-77
2022/07/04 02:29:48;;;;;;;2.03;1.90;;;20.00;90.90;;;;;;4948312;29;20282;-78
2022/07/04 02:32:14;;;;;;;4.90;2.50;;;20.00;90.50;;;;;;4948258;29;20034;-77
2022/07/04 02:34:39;;;;;;;3.27;2.00;;;20.00;90.20;;;;;;4946763;29;20184;-78
2022/07/04 02:37:05;;;;;;;3.00;2.47;;;20.00;90.50;;;;;;4913327;29;20032;-78
2022/07/04 02:39:31;;;;;;;6.80;2.40;;;20.00;91.10;;;;;;4945329;29;20027;-77
2022/07/04 02:41:57;;;;;;;2.47;2.13;;;20.00;90.70;;;;;;4944726;29;20102;-78
2022/07/04 02:44:23;;;;;;;4.03;1.90;;;19.90;90.70;;;;;;4945073;29;20216;-77
2022/07/04 02:46:50;;;;;;;3.10;2.47;;;19.90;90.50;;;;;;4944526;29;20081;-77
2022/07/04 02:49:15;;;;;;;3.00;2.67;;;19.90;91.60;;;;;;4945834;29;20023;-78
2022/07/04 02:51:41;;;;;;;4.77;2.20;;;19.80;91.50;;;;;;4944367;29;20095;-77
2022/07/04 02:54:08;;;;;;;2.42;2.22;;;19.80;91.80;;;;;;4944418;29;20251;-77
2022/07/04 02:56:33;;;;;;;2.92;2.47;;;19.80;91.60;;;;;;4947069;29;20218;-78
2022/07/04 02:58:59;;;;;;;5.77;2.40;;;19.80;91.70;;;;;;4948076;29;20019;-77
2022/07/04 03:01:25;;;;;;;4.70;2.17;;;19.70;90.10;;;;;;4964262;29;20046;-77
2022/07/04 03:03:51;;;;;;;2.57;2.30;;;19.70;91.20;;;;;;4947197;29;20030;-77
2022/07/04 03:06:16;;;;;;;4.00;2.20;;;19.70;91.90;;;;;;4963502;28;20341;-77
2022/07/04 03:08:42;;;;;;;3.80;2.50;;;19.70;91.50;;;;;;4963357;29;20023;-77
2022/07/04 03:11:08;;;;;;;5.03;2.70;;;19.80;91.20;;;;;;4964314;28;20266;-77
2022/07/04 03:13:35;;;;;;;6.33;2.47;;;19.80;91.30;;;;;;4964570;29;20030;-76
2022/07/04 03:16:01;;;;;;;3.05;2.75;;;19.80;91.30;;;;;;4955295;29;20027;-76
2022/07/04 03:18:26;;;;;;;3.20;2.20;;;19.80;91.10;;;;;;4928694;29;20326;-77
2022/07/04 03:20:52;;;;;;;4.60;2.43;;;19.80;91.50;;;;;;4914368;29;20020;-76
2022/07/04 03:23:18;;;;;;;3.47;2.10;;;19.70;92.20;;;;;;4945313;29;20091;-76
2022/07/04 03:25:44;;;;;;;4.67;2.40;;;19.70;91.70;;;;;;4961451;28;20053;-77
2022/07/04 03:28:10;;;;;;;2.93;2.20;;;19.70;92.30;;;;;;4963243;29;20086;-77
2022/07/04 03:30:35;;;;;;;3.40;1.67;;;19.60;91.20;;;;;;4931960;29;20027;-76
2022/07/04 03:33:01;;;;;;;2.83;1.87;;;19.60;91.10;;;;;;4962690;28;20070;-76
2022/07/04 03:35:27;;;;;;;3.97;2.63;;;19.60;92.00;;;;;;4963220;29;20034;-76
2022/07/04 03:37:53;;;;;;;4.13;2.10;;;19.60;92.00;;;;;;4947323;29;20042;-76
2022/07/04 03:40:19;;;;;;;3.33;2.27;;;19.60;91.80;;;;;;4947552;29;20080;-76
2022/07/04 03:42:45;;;;;;;;;;;19.60;91.60;;;;;;4947789;28;20043;-76
2022/07/04 03:45:11;;;;;;;2.75;2.00;;;19.60;92.00;;;;;;4964276;29;20205;-76
2022/07/04 03:47:37;;;;;;;3.60;2.00;;;19.50;90.70;;;;;;4947330;29;20257;-76
2022/07/04 03:50:03;;;;;;;4.17;2.03;;;19.60;91.70;;;;;;4962914;29;20019;-76
2022/07/04 03:52:29;;;;;;;2.47;1.83;;;19.60;91.00;;;;;;4946747;29;20211;-77
2022/07/04 03:54:55;;;;;;;3.00;2.10;;;19.60;90.30;;;;;;4947236;28;20054;-76
2022/07/04 03:57:20;;;;;;;1.93;1.70;;;19.60;90.50;;;;;;4947339;29;20051;-77
2022/07/04 03:59:46;;;;;;;2.43;2.23;;;19.60;90.70;;;;;;4962819;29;20093;-77
2022/07/04 04:02:12;;;;;;;2.97;1.97;;;19.60;90.90;;;;;;4943631;29;20283;-77
2022/07/04 04:07:22;;;;;;;2.35;2.00;;;19.60;90.40;;;;;;4945050;29;20026;-76
2022/07/04 04:09:48;;;;;;;3.53;1.63;;;19.60;90.00;;;;;;4945192;29;20019;-74
2022/07/04 04:12:14;;;;;;;3.77;1.63;;;19.60;89.30;;;;;;4945027;29;20139;-75
2022/07/04 04:14:39;;;;;;;3.33;2.13;;;19.60;89.30;;;;;;4943704;29;20074;-75
2022/07/04 04:17:05;;;;;;;3.73;2.00;;;19.60;89.90;;;;;;4954982;29;20086;-76
2022/07/04 04:19:31;;;;;;;1.70;1.60;;;19.60;88.90;;;;;;4945754;28;20051;-77
2022/07/04 04:21:57;;;;;;;2.07;1.77;;;19.60;89.60;;;;;;4970461;28;20037;-80
2022/07/04 04:24:23;;;;;;;2.67;1.70;;;19.60;90.00;;;;;;4968156;28;20031;-73
2022/07/04 04:26:48;;;;;;;5.47;2.20;;;19.70;89.70;;;;;;4976918;28;20023;-73
2022/07/04 04:29:14;;;;;;;3.83;1.93;;;19.70;89.50;;;;;;4973277;28;20023;-73
2022/07/04 04:31:40;;;;;;;2.73;1.77;;;19.70;89.90;;;;;;4983286;28;20246;-72
2022/07/04 04:34:06;;;;;;;2.50;1.80;;;19.70;87.70;;;;;;4970616;28;20065;-72
2022/07/04 04:36:31;;;;;;;1.47;1.37;;;19.70;87.70;;;;;;4976582;28;20203;-73
2022/07/04 04:38:57;;;;;;;3.07;1.97;;;19.60;88.60;;;;;;4975998;28;20066;-73
2022/07/04 04:41:23;;;;;;;3.13;1.93;;;19.70;88.30;;;;;;4969032;28;20333;-73
2022/07/04 04:43:49;;;;;;;2.87;1.90;;;19.70;89.10;;;;;;4966832;29;20075;-73
2022/07/04 04:46:14;;;;;;;2.40;2.20;;;19.60;88.60;;;;;;4966417;29;20019;-73
2022/07/04 04:48:40;;;;;;;3.33;1.53;;;19.70;89.60;;;;;;4967371;29;20341;-73
2022/07/04 04:51:06;;;;;;;1.93;1.73;;;19.70;89.80;;;;;;4967385;29;20090;-72
2022/07/04 04:53:32;;;;;;;3.83;2.07;;;19.70;90.10;;;;;;4966170;29;20146;-73
2022/07/04 04:55:57;;;;;;;2.07;1.80;;;19.70;90.00;;;;;;4949730;29;20029;-74
2022/07/04 04:58:23;;;;;;;4.70;1.73;;;19.70;90.00;;;;;;4961107;28;20055;-73
2022/07/04 05:00:49;;;;;;;2.07;1.70;;;19.70;87.80;;;;;;4963699;28;20369;-73
2022/07/04 05:03:18;;;;;;;3.17;1.80;;;19.70;89.10;;;;;;4959000;28;20019;-73
2022/07/04 05:05:44;;;;;;;2.88;1.90;;;19.70;88.60;;;;;;4956250;29;20171;-73
2022/07/04 05:08:10;;;;;;;4.00;1.73;;;19.70;90.00;;;;;;4952728;29;20031;-72
2022/07/04 05:10:38;;;;;;;2.88;1.70;;;19.70;88.30;;;;;;4968559;28;20046;-72
2022/07/04 05:13:04;;;;;;;3.55;1.90;;;19.70;89.90;;;;;;4968415;28;20030;-75
2022/07/04 05:15:30;;;;;;;3.53;1.90;;;19.70;87.50;;;;;;4966799;28;20024;-75
2022/07/04 05:17:56;;;;;;;2.03;1.83;;;19.70;88.70;;;;;;4967152;28;20067;-75
2022/07/04 05:20:21;;;;;;;4.13;1.70;;;19.60;88.30;;;;;;4961983;28;20283;-75
2022/07/04 05:22:47;;;;;;;3.47;1.80;;;19.70;89.80;;;;;;4958673;28;20025;-74
2022/07/04 05:25:13;;;;;;;3.13;1.93;;;19.70;89.20;;;;;;4963597;28;20042;-74
2022/07/04 05:27:39;;;;;;;2.17;1.67;;;19.70;89.70;;;;;;4958014;28;20030;-75
2022/07/04 05:30:06;;;;;;;2.97;1.92;;;19.70;90.40;;;;;;4956618;29;20015;-74
2022/07/04 05:32:32;;;;;;;4.10;2.00;;;19.70;90.30;;;;;;4958315;29;20039;-75
2022/07/04 05:34:58;;;;;;;3.97;2.63;;;19.70;90.30;;;;;;4944891;29;20047;-74
2022/07/04 05:37:24;;;;;;;3.58;2.10;;;19.60;87.90;;;;;;4947077;29;20028;-75
2022/07/04 05:39:50;;;;;;;3.90;2.15;;;19.60;90.00;;;;;;4962983;29;20078;-74
2022/07/04 05:42:16;;;;;;;2.47;1.90;;;19.60;90.60;;;;;;4933291;29;20051;-74
2022/07/04 05:44:41;;;;;;;3.42;2.38;;;19.60;91.10;;;;;;4965173;29;20030;-74
2022/07/04 05:47:07;;;;;;;3.93;2.20;;;19.60;90.90;;;;;;4965301;28;20042;-75
2022/07/04 05:49:33;;;;;;;2.67;2.47;;;19.60;89.90;;;;;;4930297;29;20079;-75
2022/07/04 05:51:59;;;;;;;5.10;2.20;;;19.60;90.00;;;;;;4946091;29;20027;-74
2022/07/04 05:54:25;;;;;;;3.63;2.13;;;19.60;90.80;;;;;;4959261;28;20103;-75
2022/07/04 05:56:50;;;;;;;3.13;2.03;;;19.70;91.50;;;;;;4945178;29;20027;-74
2022/07/04 05:59:16;;;;;;;3.43;2.10;;;19.70;91.10;;;;;;4961375;29;20019;-74
2022/07/04 06:01:42;;;;;;;5.07;2.57;;;19.70;90.30;;;;;;4961784;29;20045;-75
2022/07/04 06:04:08;;;;;;;6.27;2.20;;;19.80;90.60;;;;;;4946566;29;20015;-76
2022/07/04 06:06:34;;;;;;;3.87;1.93;;;19.80;90.70;;;;;;4945641;29;20031;-76
2022/07/04 06:09:00;;;;;;;4.35;2.47;;;19.80;89.70;;;;;;4963418;29;20168;-76
2022/07/04 06:11:25;;;;;;;5.93;2.47;;;19.80;91.00;;;;;;4964614;29;20066;-77
2022/07/04 06:13:51;;;;;;;4.80;2.23;;;19.90;91.70;;;;;;4965112;29;20601;-76
2022/07/04 06:16:17;;;;;;;3.80;2.27;;;19.90;91.60;;;;;;4948722;29;20199;-77
2022/07/04 06:18:43;;;;;;;2.67;2.43;;;19.90;90.80;;;;;;4964714;28;20027;-77
2022/07/04 06:21:09;;;;;;;9.60;2.72;;;19.90;91.10;;;;;;4949130;29;20023;-77
2022/07/04 06:23:35;;;;;;;4.38;2.30;;;19.90;90.00;;;;;;4948250;29;20142;-77
2022/07/04 06:26:01;;;;;;;2.55;2.35;;;19.90;90.90;;;;;;4932661;29;20027;-77
2022/07/04 06:28:27;;;;;;;3.92;2.53;;;20.00;91.70;;;;;;4933511;29;20321;-77
2022/07/04 06:30:53;;;;;;;3.40;2.47;;;19.90;89.80;;;;;;4964345;29;20066;-77
2022/07/04 06:33:19;;;;;;;3.20;2.30;;;20.00;90.20;;;;;;4965274;29;20030;-77
2022/07/04 06:35:45;;;;;;;4.70;2.57;;;20.00;91.50;;;;;;4964470;29;20058;-77
2022/07/04 06:38:17;;;;;;;4.03;2.20;;;20.10;91.30;;;;;;4944676;23;20173;-75
2022/07/04 06:40:43;;;;;;;2.63;2.28;;;20.10;88.90;;;;;;4932874;29;20024;-75
2022/07/04 06:43:09;;;;;;;3.58;2.45;;;20.20;90.00;;;;;;4925020;29;20024;-75
2022/07/04 06:45:35;;;;;;;3.57;2.30;;;20.30;91.10;;;;;;4924249;29;20303;-76
2022/07/04 06:48:02;;;;;;;2.60;2.10;;;20.20;87.20;;;;;;4924398;29;20031;-75
2022/07/04 06:50:28;;;;;;;5.07;2.30;;;20.20;88.00;;;;;;4940461;29;20260;-75
2022/07/04 06:52:53;;;;;;;3.93;2.20;;;20.30;89.80;;;;;;4924391;29;20342;-75
2022/07/04 06:55:19;;;;;;;5.27;2.40;;;20.30;90.20;;;;;;4924906;29;20028;-75
2022/07/04 06:57:45;;;;;;;4.70;2.33;;;20.30;91.00;;;;;;4925477;29;20129;-75
2022/07/04 07:00:11;;;;;;;4.53;2.50;;;20.30;90.50;;;;;;4924018;29;20267;-75
2022/07/04 07:02:37;;;;;;;3.47;2.30;;;20.30;87.50;;;;;;4908555;29;20030;-76
2022/07/04 07:05:04;;;;;;;3.20;2.58;;;20.40;89.90;;;;;;4939899;29;20031;-75
2022/07/04 07:07:30;;;;;;;2.72;2.10;;;20.40;89.40;;;;;;4940099;29;20036;-75
2022/07/04 07:09:56;;;;;;;3.10;2.73;;;20.50;89.50;;;;;;4939940;29;20023;-76
2022/07/04 07:12:22;;;;;;;3.57;2.73;;;20.50;89.90;;;;;;4939801;29;20572;-75
2022/07/04 07:14:49;;;;;;;3.30;2.35;;;20.50;88.90;;;;;;4940118;29;20096;-75
2022/07/04 07:17:15;;;;;;;3.65;2.72;;;20.60;90.00;;;;;;4936434;29;20052;-75
2022/07/04 07:19:42;;;;;;;4.40;2.95;;;20.60;88.30;;;;;;4905359;29;20219;-76
2022/07/04 07:22:11;;;;;;;4.05;2.65;;;20.60;87.60;;;;;;4905308;29;20029;-74
2022/07/04 07:24:37;;;;;;;2.80;2.60;;;20.60;89.70;;;;;;4922707;29;20051;-74
2022/07/04 07:27:04;;;;;;;4.10;3.17;;;20.70;90.10;;;;;;4924918;29;20035;-74
2022/07/04 07:29:29;;;;;;;4.82;2.35;;;20.70;87.00;;;;;;4923116;29;20128;-74
2022/07/04 07:31:55;;;;;;;5.27;2.40;;;20.70;87.30;;;;;;4939795;29;20329;-74
2022/07/04 07:34:21;;;;;;;3.00;2.70;;;20.80;90.50;;;;;;4939627;29;20079;-74
2022/07/04 07:36:47;;;;;;;4.00;2.70;;;20.80;91.10;;;;;;4922655;29;20032;-74
2022/07/04 07:39:12;;;;;;;4.10;2.47;;;20.80;86.60;;;;;;4939820;29;20031;-74
2022/07/04 07:41:38;;;;;;;3.40;3.10;;;20.80;87.30;;;;;;4924880;29;20349;-74
2022/07/04 07:44:04;;;;;;;4.47;3.23;;;20.80;87.30;;;;;;4938954;29;20326;-74
2022/07/04 07:46:30;;;;;;;2.90;2.70;;;20.90;90.50;;;;;;4920214;29;20039;-74
2022/07/04 07:48:55;;;;;;;3.90;3.10;;;20.90;91.70;;;;;;4904885;29;20338;-74
2022/07/04 07:51:21;;;;;;;3.20;2.90;;;21.00;92.70;;;;;;4906093;29;20063;-74
2022/07/04 07:53:47;;;;;;;3.00;2.70;;;21.00;92.40;;;;;;4905674;29;20080;-74
2022/07/04 07:56:13;;;;;;;4.47;2.90;;;21.00;91.50;;;;;;4918052;29;20035;-74
2022/07/04 07:58:38;;;;;;;5.30;3.00;;;21.00;90.00;;;;;;4926353;29;20028;-74
2022/07/04 08:01:04;;;;;;;7.50;3.30;;;21.10;90.30;;;;;;4928842;29;20543;-74
2022/07/04 08:06:15;;;;;;;2.90;2.65;;;21.10;89.60;;;;;;4909941;29;20048;-74
2022/07/04 08:08:42;;;;;;;5.65;2.67;;;21.20;89.10;;;;;;4908446;29;20039;-74
2022/07/04 08:11:09;;;;;;;2.97;2.75;;;21.30;90.00;;;;;;4909612;29;20055;-74
2022/07/04 08:13:34;;;;;;;5.50;3.15;;;21.40;87.80;;;;;;4909376;29;20080;-74
2022/07/04 08:16:00;;;;;;;3.60;2.50;;;21.50;88.00;;;;;;4942942;29;20028;-74
2022/07/04 08:18:26;;;;;;;7.53;3.03;;;21.50;84.90;;;;;;4926865;29;20281;-74
2022/07/04 08:20:52;;;;;;;4.57;2.90;;;21.60;85.30;;;;;;4924098;29;20095;-74
2022/07/04 08:23:18;;;;;;;3.53;3.03;;;21.60;86.20;;;;;;4924644;29;20025;-73
2022/07/04 08:25:43;;;;;;;4.57;3.40;;;21.60;84.60;;;;;;4919912;29;20276;-74
2022/07/04 08:28:09;;;;;;;3.30;2.70;;;21.60;85.90;;;;;;4920915;29;20115;-74
2022/07/04 08:30:35;;;;;;;3.97;2.60;;;21.70;86.80;;;;;;4931572;29;20027;-74
2022/07/04 08:33:01;;;;;;;22.60;4.18;;;21.70;85.90;;;;;;4910470;29;20235;-74
2022/07/04 08:35:27;;;;;;;5.17;2.50;;;21.80;85.80;;;;;;4908535;29;20028;-74
2022/07/04 08:37:55;;;;;;;2.95;2.63;;;21.90;85.50;;;;;;4926453;29;20040;-74
2022/07/04 08:40:22;;;;;;;6.75;2.63;;;21.90;86.20;;;;;;4942385;29;20036;-74
2022/07/04 08:42:48;;;;;;;4.40;2.63;;;21.90;86.10;;;;;;4942341;29;20027;-74
2022/07/04 08:45:15;;;;;;;2.72;2.53;;;22.00;84.70;;;;;;4922748;29;20049;-74
2022/07/04 08:47:41;;;;;;;;;;;22.00;85.50;;;;;;4908364;29;20036;-74
2022/07/04 08:50:31;;;;;;;4.70;2.97;;;22.00;87.20;;;;;;4908079;29;19908;-74
2022/07/04 08:53:10;;;;;;;2.72;2.53;;;22.00;86.70;;;;;;4907774;29;20032;-74
2022/07/04 08:58:26;;;;;;;2.83;2.63;;;22.10;85.80;;;;;;4927538;29;20076;-74
2022/07/04 09:00:56;;;;;;;3.40;2.90;;;22.10;82.90;;;;;;4892511;29;20327;-74
2022/07/04 09:03:22;;;;;;;4.63;2.85;;;22.10;85.70;;;;;;4923170;29;20227;-74
2022/07/04 09:05:48;;;;;;;;;;;22.10;86.30;;;;;;4923746;29;20024;-74
2022/07/04 09:08:14;;;;;;;7.85;3.22;;;22.20;86.20;;;;;;4908224;29;19999;-74
2022/07/04 09:10:40;;;;;;;4.47;3.00;;;22.20;85.70;;;;;;4917762;29;20055;-74
2022/07/04 09:13:07;;;;;;;3.63;2.57;;;22.20;84.60;;;;;;4912464;29;20079;-73
2022/07/04 09:15:33;;;;;;;4.13;2.88;;;22.20;81.90;;;;;;4910652;29;20027;-74
2022/07/04 09:18:03;;;;;;;4.47;2.95;;;22.20;82.50;;;;;;4918537;29;20056;-74
2022/07/04 09:20:30;;;;;;;6.63;3.42;;;22.20;85.40;;;;;;4895491;29;20125;-74
2022/07/04 09:22:56;;;;;;;8.52;3.00;;;22.20;84.00;;;;;;4891823;29;20036;-74
2022/07/04 09:25:24;;;;;;;6.03;2.97;;;22.20;86.40;;;;;;4907396;29;20017;-74
2022/07/04 09:27:54;;;;;;;4.82;3.10;;;22.30;87.40;;;;;;4906877;29;20773;-74
2022/07/04 09:30:22;;;;;;;3.70;2.95;;;22.30;86.80;;;;;;4910849;29;20095;-74
2022/07/04 09:32:59;;;;;;;2.78;2.50;;;22.30;80.00;;;;;;4939419;29;20140;-74
2022/07/04 09:35:25;;;;;;;3.72;2.60;;;22.30;81.60;;;;;;4917357;29;20283;-74
2022/07/04 09:37:54;;;;;;;3.92;3.10;;;22.40;84.90;;;;;;4891354;29;20119;-74
2022/07/04 09:43:24;;;;;;;3.63;2.78;;;22.40;83.40;;;;;;4906798;29;20030;-74
2022/07/04 09:45:58;;;;;;;4.15;3.03;;;22.40;82.40;;;;;;4891347;29;20231;-74
2022/07/04 09:48:24;;;;;;;5.18;3.13;;;22.50;82.50;;;;;;4891342;29;20024;-74
2022/07/04 09:50:50;;;;;;;7.25;3.20;;;22.50;82.20;;;;;;4895196;29;20025;-74
2022/07/04 09:53:16;;;;;;;3.63;2.70;;;22.50;80.90;;;;;;4922565;29;20043;-74
2022/07/04 09:55:42;;;;;;;5.03;2.92;;;22.50;85.40;;;;;;4914373;29;20032;-74
2022/07/04 09:58:14;;;;;;;3.93;2.90;;;22.50;84.30;;;;;;4923714;29;20343;-74
2022/07/04 10:00:42;;;;;;;7.47;3.53;;;22.60;84.40;;;;;;4926729;29;20215;-74
2022/07/04 10:03:18;;;;;;;4.78;2.97;;;22.60;82.80;;;;;;4925369;29;20024;-74
2022/07/04 10:05:46;;;;;;;6.10;3.15;;;22.60;83.40;;;;;;4925035;29;20071;-74
2022/07/04 10:08:12;;;;;;;3.60;2.90;;;22.70;80.00;;;;;;4940855;29;20028;-74
2022/07/04 10:10:39;;;;;;;4.17;2.83;;;22.70;80.00;;;;;;4941454;29;20083;-74
2022/07/04 10:13:07;;;;;;;4.32;2.65;;;22.70;77.40;;;;;;4940683;29;20504;-74
2022/07/04 10:15:38;;;;;;;3.95;3.22;;;22.70;79.20;;;;;;4922558;29;20223;-75
2022/07/04 10:18:06;;;;;;;6.38;2.60;;;22.70;82.80;;;;;;4919100;29;20032;-75
2022/07/04 10:20:31;;;;;;;3.03;2.78;;;22.80;85.30;;;;;;4918713;29;20131;-75
2022/07/04 10:22:57;;;;;;;4.77;2.93;;;22.80;82.60;;;;;;4900290;29;20108;-75
2022/07/04 10:25:24;;;;;;;6.13;3.08;;;22.90;79.70;;;;;;4915669;29;20300;-74
2022/07/04 10:27:51;;;;;;;5.75;3.22;;;22.80;79.70;;;;;;4906100;29;20028;-74
2022/07/04 10:30:23;;;;;;;4.45;2.70;;;22.90;81.90;;;;;;4909687;29;20024;-74
2022/07/04 10:32:48;;;;;;;3.63;2.80;;;22.90;84.00;;;;;;4895867;29;20382;-74
2022/07/04 10:35:15;;;;;;;3.70;2.77;;;23.00;80.30;;;;;;4901218;29;20219;-75
2022/07/04 10:38:02;;;;;;;;;;;23.10;80.80;;;;;;4900667;29;20031;-74
2022/07/04 10:40:45;;;;;;;6.47;3.17;;;23.10;77.90;;;;;;4922726;29;20261;-74
2022/07/04 10:43:51;;;;;;;3.22;2.60;;;23.20;79.20;;;;;;4920423;29;20075;-74
2022/07/04 10:46:16;;;;;;;3.15;2.67;;;23.30;78.90;;;;;;4907045;29;20096;-75
2022/07/04 10:48:55;;;;;;;4.53;2.30;;;23.30;79.70;;;;;;4912676;29;20346;-75
2022/07/04 10:51:46;;;;;;;3.75;2.53;;;23.40;78.70;;;;;;4940074;29;20063;-74
2022/07/04 10:54:18;;;;;;;5.47;2.60;;;23.50;79.40;;;;;;4939789;29;20260;-74
2022/07/04 10:57:05;;;;;;;2.97;2.38;;;23.50;77.00;;;;;;4925252;29;20140;-74
2022/07/04 10:59:31;;;;;;;3.92;2.72;;;23.50;76.60;;;;;;4939219;29;20027;-74
2022/07/04 11:02:09;;;;;;;4.53;2.60;;;23.50;78.00;;;;;;4925562;29;20016;-74
2022/07/04 11:04:56;;;;;;;3.70;2.83;;;23.60;78.20;;;;;;4923951;29;20095;-74
2022/07/04 11:07:35;;;;;;;4.75;2.60;;;23.60;78.40;;;;;;4925110;29;20200;-74
2022/07/04 11:12:55;;;;;;;4.28;2.40;;;23.70;78.50;;;;;;4924022;29;20055;-74
2022/07/04 11:15:33;;;;;;;2.72;2.38;;;23.80;76.00;;;;;;4939781;29;20028;-74
2022/07/04 11:18:04;;;;;;;3.85;2.70;;;23.90;80.30;;;;;;4925143;29;20024;-74
2022/07/04 11:20:31;;;;;;;5.68;2.35;;;23.90;79.00;;;;;;4923996;29;20275;-74
2022/07/04 11:23:10;;;;;;;4.32;2.28;;;24.00;76.90;;;;;;4938873;29;20234;-74
2022/07/04 11:25:37;;;;;;;2.58;2.38;;;24.20;77.30;;;;;;4939924;29;20047;-74
2022/07/04 11:28:19;;;;;;;3.50;1.92;;;24.30;76.30;;;;;;4925152;29;20055;-74
2022/07/04 11:30:55;;;;;;;4.22;2.30;;;24.50;73.50;;;;;;4925134;29;20035;-74
2022/07/04 11:33:26;;;;;;;3.17;1.85;;;24.60;72.30;;;;;;4924085;29;20036;-74
2022/07/04 11:36:16;;;;;;;3.53;1.92;;;24.70;73.10;;;;;;4939158;29;20046;-74
2022/07/04 11:38:49;;;;;;;2.88;2.00;;;24.70;71.70;;;;;;4937980;29;20040;-74
2022/07/04 11:47:10;;;;;;;2.30;1.83;;;24.90;70.10;;;;;;4918134;29;20032;-74
2022/07/04 11:49:36;;;;;;;2.25;1.70;;;25.00;71.00;;;;;;4920623;29;20025;-74
2022/07/04 11:52:02;;;;;;;;;;;25.00;72.00;;;;;;4922307;29;20039;-74
2022/07/04 11:54:28;;;;;;;2.22;1.80;;;25.10;70.50;;;;;;4923599;29;20091;-74
2022/07/04 11:57:18;;;;;;;3.92;2.25;;;25.10;72.10;;;;;;4939441;29;20032;-74
2022/07/04 11:59:57;;;;;;;2.80;1.42;;;25.30;72.90;;;;;;4938551;29;20230;-74
2022/07/04 12:02:23;;;;;;;2.17;1.50;;;25.40;69.40;;;;;;4939551;29;20460;-74
2022/07/04 12:04:49;;;;;;;3.72;1.80;;;25.60;66.50;;;;;;4917070;29;20037;-74
2022/07/04 12:07:17;;;;;;;3.53;1.70;;;25.70;66.20;;;;;;4896475;29;20032;-74
2022/07/04 12:09:44;;;;;;;2.20;1.50;;;25.90;64.30;;;;;;4904907;29;20028;-74
2022/07/04 12:12:10;;;;;;;1.75;1.48;;;25.90;64.10;;;;;;4918664;29;20048;-74
2022/07/04 12:14:36;;;;;;;2.63;1.58;;;26.10;61.90;;;;;;4905710;29;20323;-74
2022/07/04 12:17:15;;;;;;;4.22;2.10;;;26.10;62.30;;;;;;4920137;29;20036;-74
2022/07/04 12:19:54;;;;;;;3.17;1.40;;;26.20;63.70;;;;;;4919698;29;20026;-74
2022/07/04 12:22:39;;;;;;;3.25;1.60;;;26.20;63.20;;;;;;4920165;29;20032;-74
2022/07/04 12:25:08;;;;;;;4.95;1.60;;;26.40;64.10;;;;;;4920171;29;20048;-74
2022/07/04 12:27:34;;;;;;;4.95;1.80;;;26.50;62.30;;;;;;4920047;29;20024;-73
2022/07/04 12:30:00;;;;;;;2.90;1.55;;;26.50;63.20;;;;;;4924400;29;20047;-74
2022/07/04 12:32:46;;;;;;;1.60;1.35;;;26.60;63.10;;;;;;4923847;29;20024;-74
2022/07/04 12:35:47;;;;;;;2.05;1.33;;;26.60;61.10;;;;;;4904927;29;20047;-74
2022/07/04 12:38:15;;;;;;;1.77;1.40;;;26.70;60.90;;;;;;4921182;29;20354;-74
2022/07/04 12:40:58;;;;;;;1.90;1.20;;;26.80;60.30;;;;;;4921374;29;20020;-74
2022/07/04 12:43:42;;;;;;;3.33;1.30;;;27.00;59.30;;;;;;4921868;29;20027;-74
2022/07/04 12:46:24;;;;;;;2.88;1.20;;;27.10;60.30;;;;;;4929269;29;20024;-74
2022/07/04 12:48:54;;;;;;;3.42;1.17;;;27.20;61.80;;;;;;4913710;29;20068;-74
2022/07/04 12:51:23;;;;;;;3.13;1.30;;;27.40;59.70;;;;;;4927728;29;20327;-74
2022/07/04 12:53:50;;;;;;;6.70;1.40;;;27.60;58.50;;;;;;4923614;29;20021;-74
2022/07/04 12:56:41;;;;;;;2.50;1.35;;;27.80;58.20;;;;;;4924659;29;20330;-74
2022/07/04 12:59:19;;;;;;;3.60;1.35;;;28.00;58.60;;;;;;4924742;29;20328;-74
2022/07/04 13:01:45;;;;;;;1.50;1.17;;;28.20;58.00;;;;;;4927382;29;20088;-74
2022/07/04 13:04:11;;;;;;;3.83;1.73;;;28.40;58.10;;;;;;4896069;29;20024;-74
2022/07/04 13:06:38;;;;;;;1.83;1.08;;;28.40;57.30;;;;;;4912055;29;20052;-74
2022/07/04 13:09:04;;;;;;;3.00;1.40;;;28.70;57.90;;;;;;4927566;29;20032;-74
2022/07/04 13:14:14;;;;;;;0.90;0.90;;;29.10;54.50;;;;;;4913971;29;20279;-74
2022/07/04 13:16:40;;;;;;;2.05;1.13;;;29.40;55.10;;;;;;4928472;29;20028;-74
2022/07/04 13:19:06;;;;;;;2.03;1.00;;;29.60;53.50;;;;;;4928531;29;20056;-73